sensor_id;sensor_type;location;lat;lon;timestamp;P1;durP1;ratioP1;P2;durP2;ratioP2
4885;SDS011;2457;51.788;6.136;2022-07-06T00:01:19;5.20;;;1.30;;
4885;SDS011;2457;51.788;6.136;2022-07-06T00:03:46;3.80;;;1.57;;
4885;SDS011;2457;51.788;6.136;2022-07-06T00:06:13;4.70;;;1.57;;
4885;SDS011;2457;51.788;6.136;2022-07-06T00:08:43;4.53;;;1.60;;
4885;SDS011;2457;51.788;6.136;2022-07-06T00:11:10;3.80;;;1.53;;
4885;SDS011;2457;51.788;6.136;2022-07-06T00:13:37;2.87;;;1.30;;
4885;SDS011;2457;51.788;6.136;2022-07-06T00:16:05;3.40;;;1.20;;
4885;SDS011;2457;51.788;6.136;2022-07-06T00:18:32;7.53;;;1.60;;
4885;SDS011;2457;51.788;6.136;2022-07-06T00:20:59;5.77;;;1.80;;
4885;SDS011;2457;51.788;6.136;2022-07-06T00:23:27;3.33;;;1.33;;
4885;SDS011;2457;51.788;6.136;2022-07-06T00:25:54;3.00;;;1.30;;
4885;SDS011;2457;51.788;6.136;2022-07-06T00:28:21;3.57;;;1.30;;
4885;SDS011;2457;51.788;6.136;2022-07-06T00:30:48;4.33;;;1.30;;
4885;SDS011;2457;51.788;6.136;2022-07-06T00:33:16;4.17;;;1.40;;
4885;SDS011;2457;51.788;6.136;2022-07-06T00:35:43;4.17;;;1.30;;
4885;SDS011;2457;51.788;6.136;2022-07-06T00:38:10;4.23;;;1.57;;
4885;SDS011;2457;51.788;6.136;2022-07-06T00:40:38;3.40;;;1.63;;
4885;SDS011;2457;51.788;6.136;2022-07-06T00:43:05;4.33;;;1.53;;
4885;SDS011;2457;51.788;6.136;2022-07-06T00:45:32;4.80;;;1.77;;
4885;SDS011;2457;51.788;6.136;2022-07-06T00:48:00;3.60;;;1.40;;
4885;SDS011;2457;51.788;6.136;2022-07-06T00:50:27;4.10;;;1.40;;
4885;SDS011;2457;51.788;6.136;2022-07-06T00:52:55;3.57;;;1.30;;
4885;SDS011;2457;51.788;6.136;2022-07-06T00:55:23;4.50;;;1.40;;
4885;SDS011;2457;51.788;6.136;2022-07-06T00:57:51;6.73;;;1.50;;
4885;SDS011;2457;51.788;6.136;2022-07-06T01:00:19;3.63;;;1.00;;
4885;SDS011;2457;51.788;6.136;2022-07-06T01:02:47;6.00;;;1.40;;
4885;SDS011;2457;51.788;6.136;2022-07-06T01:05:15;5.60;;;1.60;;
4885;SDS011;2457;51.788;6.136;2022-07-06T01:07:43;4.37;;;1.50;;
4885;SDS011;2457;51.788;6.136;2022-07-06T01:10:11;5.13;;;1.50;;
4885;SDS011;2457;51.788;6.136;2022-07-06T01:12:39;6.30;;;1.30;;
4885;SDS011;2457;51.788;6.136;2022-07-06T01:15:09;3.93;;;1.37;;
4885;SDS011;2457;51.788;6.136;2022-07-06T01:17:35;4.67;;;1.30;;
4885;SDS011;2457;51.788;6.136;2022-07-06T01:20:22;3.67;;;1.33;;
4885;SDS011;2457;51.788;6.136;2022-07-06T01:22:50;3.10;;;1.20;;
4885;SDS011;2457;51.788;6.136;2022-07-06T01:25:18;4.60;;;1.43;;
4885;SDS011;2457;51.788;6.136;2022-07-06T01:27:46;4.17;;;1.40;;
4885;SDS011;2457;51.788;6.136;2022-07-06T01:30:14;3.67;;;1.50;;
4885;SDS011;2457;51.788;6.136;2022-07-06T01:32:42;3.67;;;1.30;;
4885;SDS011;2457;51.788;6.136;2022-07-06T01:35:11;4.40;;;1.40;;
4885;SDS011;2457;51.788;6.136;2022-07-06T01:37:38;4.65;;;1.60;;
4885;SDS011;2457;51.788;6.136;2022-07-06T01:40:07;7.10;;;1.57;;
4885;SDS011;2457;51.788;6.136;2022-07-06T01:42:34;3.40;;;1.30;;
4885;SDS011;2457;51.788;6.136;2022-07-06T01:45:02;4.77;;;1.50;;
4885;SDS011;2457;51.788;6.136;2022-07-06T01:47:30;7.90;;;1.80;;
4885;SDS011;2457;51.788;6.136;2022-07-06T01:49:59;4.70;;;1.50;;
4885;SDS011;2457;51.788;6.136;2022-07-06T01:52:27;5.90;;;1.83;;
4885;SDS011;2457;51.788;6.136;2022-07-06T01:54:59;3.40;;;1.50;;
4885;SDS011;2457;51.788;6.136;2022-07-06T01:57:23;3.73;;;1.70;;
4885;SDS011;2457;51.788;6.136;2022-07-06T01:59:50;7.83;;;2.10;;
4885;SDS011;2457;51.788;6.136;2022-07-06T02:02:17;5.37;;;1.97;;
4885;SDS011;2457;51.788;6.136;2022-07-06T02:04:45;3.77;;;1.73;;
4885;SDS011;2457;51.788;6.136;2022-07-06T02:07:12;3.80;;;1.50;;
4885;SDS011;2457;51.788;6.136;2022-07-06T02:09:39;3.83;;;1.50;;
4885;SDS011;2457;51.788;6.136;2022-07-06T02:12:07;5.80;;;1.63;;
4885;SDS011;2457;51.788;6.136;2022-07-06T02:14:34;11.93;;;2.00;;
4885;SDS011;2457;51.788;6.136;2022-07-06T02:17:01;7.63;;;1.80;;
4885;SDS011;2457;51.788;6.136;2022-07-06T02:19:28;3.70;;;1.43;;
4885;SDS011;2457;51.788;6.136;2022-07-06T02:21:56;4.40;;;1.43;;
4885;SDS011;2457;51.788;6.136;2022-07-06T02:24:23;3.37;;;1.27;;
4885;SDS011;2457;51.788;6.136;2022-07-06T02:26:50;5.10;;;1.37;;
4885;SDS011;2457;51.788;6.136;2022-07-06T02:29:17;3.60;;;2.30;;
4885;SDS011;2457;51.788;6.136;2022-07-06T02:31:46;4.43;;;1.67;;
4885;SDS011;2457;51.788;6.136;2022-07-06T02:34:13;5.47;;;1.60;;
4885;SDS011;2457;51.788;6.136;2022-07-06T02:36:40;4.20;;;1.57;;
4885;SDS011;2457;51.788;6.136;2022-07-06T02:39:07;6.70;;;1.70;;
4885;SDS011;2457;51.788;6.136;2022-07-06T02:41:35;6.20;;;2.03;;
4885;SDS011;2457;51.788;6.136;2022-07-06T02:44:02;4.77;;;1.70;;
4885;SDS011;2457;51.788;6.136;2022-07-06T02:46:29;5.30;;;1.73;;
4885;SDS011;2457;51.788;6.136;2022-07-06T02:48:57;4.50;;;1.47;;
4885;SDS011;2457;51.788;6.136;2022-07-06T02:51:24;6.77;;;1.63;;
4885;SDS011;2457;51.788;6.136;2022-07-06T02:53:51;5.60;;;1.70;;
4885;SDS011;2457;51.788;6.136;2022-07-06T02:56:18;5.27;;;1.50;;
4885;SDS011;2457;51.788;6.136;2022-07-06T02:58:46;6.40;;;1.80;;
4885;SDS011;2457;51.788;6.136;2022-07-06T03:01:13;6.43;;;2.20;;
4885;SDS011;2457;51.788;6.136;2022-07-06T03:03:40;3.80;;;1.47;;
4885;SDS011;2457;51.788;6.136;2022-07-06T03:06:08;3.90;;;1.77;;
4885;SDS011;2457;51.788;6.136;2022-07-06T03:08:35;5.47;;;1.87;;
4885;SDS011;2457;51.788;6.136;2022-07-06T03:11:02;5.00;;;1.37;;
4885;SDS011;2457;51.788;6.136;2022-07-06T03:13:30;3.90;;;1.43;;
4885;SDS011;2457;51.788;6.136;2022-07-06T03:15:57;4.90;;;1.60;;
4885;SDS011;2457;51.788;6.136;2022-07-06T03:18:24;4.70;;;1.60;;
4885;SDS011;2457;51.788;6.136;2022-07-06T03:20:51;4.90;;;1.47;;
4885;SDS011;2457;51.788;6.136;2022-07-06T03:23:19;6.63;;;1.60;;
4885;SDS011;2457;51.788;6.136;2022-07-06T03:25:46;9.00;;;1.50;;
4885;SDS011;2457;51.788;6.136;2022-07-06T03:28:13;4.33;;;1.50;;
4885;SDS011;2457;51.788;6.136;2022-07-06T03:30:41;4.83;;;1.87;;
4885;SDS011;2457;51.788;6.136;2022-07-06T03:33:08;3.73;;;1.67;;
4885;SDS011;2457;51.788;6.136;2022-07-06T03:35:35;4.93;;;1.60;;
4885;SDS011;2457;51.788;6.136;2022-07-06T03:38:02;4.93;;;1.57;;
4885;SDS011;2457;51.788;6.136;2022-07-06T03:40:30;3.30;;;1.50;;
4885;SDS011;2457;51.788;6.136;2022-07-06T03:42:57;5.00;;;1.70;;
4885;SDS011;2457;51.788;6.136;2022-07-06T03:45:24;3.43;;;1.63;;
4885;SDS011;2457;51.788;6.136;2022-07-06T03:47:51;4.00;;;1.20;;
4885;SDS011;2457;51.788;6.136;2022-07-06T03:50:19;5.70;;;1.83;;
4885;SDS011;2457;51.788;6.136;2022-07-06T03:52:46;6.47;;;1.80;;
4885;SDS011;2457;51.788;6.136;2022-07-06T03:55:14;5.77;;;1.50;;
4885;SDS011;2457;51.788;6.136;2022-07-06T03:57:41;4.80;;;1.57;;
4885;SDS011;2457;51.788;6.136;2022-07-06T04:00:09;7.23;;;1.70;;
4885;SDS011;2457;51.788;6.136;2022-07-06T04:02:36;4.20;;;1.70;;
4885;SDS011;2457;51.788;6.136;2022-07-06T04:05:04;5.30;;;1.43;;
4885;SDS011;2457;51.788;6.136;2022-07-06T04:07:31;4.73;;;1.87;;
4885;SDS011;2457;51.788;6.136;2022-07-06T04:09:58;5.27;;;2.03;;
4885;SDS011;2457;51.788;6.136;2022-07-06T04:12:25;4.93;;;1.77;;
4885;SDS011;2457;51.788;6.136;2022-07-06T04:14:55;6.63;;;1.50;;
4885;SDS011;2457;51.788;6.136;2022-07-06T04:17:22;4.93;;;1.80;;
4885;SDS011;2457;51.788;6.136;2022-07-06T04:20:08;3.87;;;1.50;;
4885;SDS011;2457;51.788;6.136;2022-07-06T04:22:38;7.87;;;2.10;;
4885;SDS011;2457;51.788;6.136;2022-07-06T04:25:06;10.33;;;1.87;;
4885;SDS011;2457;51.788;6.136;2022-07-06T04:27:33;5.13;;;2.00;;
4885;SDS011;2457;51.788;6.136;2022-07-06T04:30:01;4.57;;;1.80;;
4885;SDS011;2457;51.788;6.136;2022-07-06T04:32:29;6.83;;;2.17;;
4885;SDS011;2457;51.788;6.136;2022-07-06T04:34:56;4.93;;;1.93;;
4885;SDS011;2457;51.788;6.136;2022-07-06T04:37:24;4.33;;;1.37;;
4885;SDS011;2457;51.788;6.136;2022-07-06T04:39:51;4.53;;;1.60;;
4885;SDS011;2457;51.788;6.136;2022-07-06T04:42:18;5.97;;;1.90;;
4885;SDS011;2457;51.788;6.136;2022-07-06T04:44:45;5.63;;;1.67;;
4885;SDS011;2457;51.788;6.136;2022-07-06T04:47:13;5.70;;;2.00;;
4885;SDS011;2457;51.788;6.136;2022-07-06T04:49:40;4.27;;;1.67;;
4885;SDS011;2457;51.788;6.136;2022-07-06T04:52:07;5.33;;;1.53;;
4885;SDS011;2457;51.788;6.136;2022-07-06T04:54:35;3.50;;;1.20;;
4885;SDS011;2457;51.788;6.136;2022-07-06T04:57:03;7.10;;;2.30;;
4885;SDS011;2457;51.788;6.136;2022-07-06T04:59:31;4.43;;;1.40;;
4885;SDS011;2457;51.788;6.136;2022-07-06T05:01:58;3.57;;;1.43;;
4885;SDS011;2457;51.788;6.136;2022-07-06T05:04:26;4.10;;;1.50;;
4885;SDS011;2457;51.788;6.136;2022-07-06T05:06:53;4.97;;;1.53;;
4885;SDS011;2457;51.788;6.136;2022-07-06T05:09:20;4.80;;;1.77;;
4885;SDS011;2457;51.788;6.136;2022-07-06T05:11:47;5.30;;;2.20;;
4885;SDS011;2457;51.788;6.136;2022-07-06T05:14:15;5.47;;;1.47;;
4885;SDS011;2457;51.788;6.136;2022-07-06T05:16:42;3.80;;;1.13;;
4885;SDS011;2457;51.788;6.136;2022-07-06T05:19:09;6.07;;;2.10;;
4885;SDS011;2457;51.788;6.136;2022-07-06T05:21:37;5.13;;;1.67;;
4885;SDS011;2457;51.788;6.136;2022-07-06T05:24:04;4.20;;;1.63;;
4885;SDS011;2457;51.788;6.136;2022-07-06T05:26:31;3.70;;;1.47;;
4885;SDS011;2457;51.788;6.136;2022-07-06T05:28:59;3.83;;;1.20;;
4885;SDS011;2457;51.788;6.136;2022-07-06T05:31:26;4.80;;;1.50;;
4885;SDS011;2457;51.788;6.136;2022-07-06T05:33:53;5.50;;;1.40;;
4885;SDS011;2457;51.788;6.136;2022-07-06T05:36:20;3.70;;;1.37;;
4885;SDS011;2457;51.788;6.136;2022-07-06T05:38:48;4.10;;;1.73;;
4885;SDS011;2457;51.788;6.136;2022-07-06T05:41:15;5.27;;;1.53;;
4885;SDS011;2457;51.788;6.136;2022-07-06T05:43:42;4.33;;;1.47;;
4885;SDS011;2457;51.788;6.136;2022-07-06T05:46:09;8.70;;;2.10;;
4885;SDS011;2457;51.788;6.136;2022-07-06T05:48:37;4.07;;;1.30;;
4885;SDS011;2457;51.788;6.136;2022-07-06T05:51:22;7.50;;;1.43;;
4885;SDS011;2457;51.788;6.136;2022-07-06T05:53:50;3.43;;;1.27;;
4885;SDS011;2457;51.788;6.136;2022-07-06T05:56:17;3.20;;;1.30;;
4885;SDS011;2457;51.788;6.136;2022-07-06T05:58:44;4.53;;;1.50;;
4885;SDS011;2457;51.788;6.136;2022-07-06T06:01:11;5.30;;;1.77;;
4885;SDS011;2457;51.788;6.136;2022-07-06T06:03:39;3.00;;;1.30;;
4885;SDS011;2457;51.788;6.136;2022-07-06T06:06:06;7.13;;;1.60;;
4885;SDS011;2457;51.788;6.136;2022-07-06T06:08:33;4.70;;;1.53;;
4885;SDS011;2457;51.788;6.136;2022-07-06T06:11:01;5.83;;;1.73;;
4885;SDS011;2457;51.788;6.136;2022-07-06T06:13:28;5.90;;;1.43;;
4885;SDS011;2457;51.788;6.136;2022-07-06T06:15:55;5.13;;;1.40;;
4885;SDS011;2457;51.788;6.136;2022-07-06T06:18:23;5.63;;;1.53;;
4885;SDS011;2457;51.788;6.136;2022-07-06T06:20:50;4.53;;;1.70;;
4885;SDS011;2457;51.788;6.136;2022-07-06T06:23:17;6.63;;;1.50;;
4885;SDS011;2457;51.788;6.136;2022-07-06T06:25:44;4.10;;;1.53;;
4885;SDS011;2457;51.788;6.136;2022-07-06T06:28:12;5.83;;;1.80;;
4885;SDS011;2457;51.788;6.136;2022-07-06T06:30:39;3.30;;;1.40;;
4885;SDS011;2457;51.788;6.136;2022-07-06T06:33:13;3.70;;;1.50;;
4885;SDS011;2457;51.788;6.136;2022-07-06T06:35:42;3.50;;;1.30;;
4885;SDS011;2457;51.788;6.136;2022-07-06T06:38:10;4.27;;;1.20;;
4885;SDS011;2457;51.788;6.136;2022-07-06T06:40:37;4.00;;;1.40;;
4885;SDS011;2457;51.788;6.136;2022-07-06T06:43:05;4.50;;;1.10;;
4885;SDS011;2457;51.788;6.136;2022-07-06T06:45:32;5.53;;;1.20;;
4885;SDS011;2457;51.788;6.136;2022-07-06T06:47:59;3.93;;;1.30;;
4885;SDS011;2457;51.788;6.136;2022-07-06T06:50:27;3.03;;;1.03;;
4885;SDS011;2457;51.788;6.136;2022-07-06T06:52:54;5.70;;;1.33;;
4885;SDS011;2457;51.788;6.136;2022-07-06T06:55:21;5.93;;;1.33;;
4885;SDS011;2457;51.788;6.136;2022-07-06T06:57:49;4.93;;;1.10;;
4885;SDS011;2457;51.788;6.136;2022-07-06T07:00:16;4.10;;;1.00;;
4885;SDS011;2457;51.788;6.136;2022-07-06T07:02:44;4.90;;;1.10;;
4885;SDS011;2457;51.788;6.136;2022-07-06T07:05:11;4.73;;;1.33;;
4885;SDS011;2457;51.788;6.136;2022-07-06T07:07:39;3.70;;;1.10;;
4885;SDS011;2457;51.788;6.136;2022-07-06T07:10:06;3.73;;;1.00;;
4885;SDS011;2457;51.788;6.136;2022-07-06T07:12:34;2.90;;;1.00;;
4885;SDS011;2457;51.788;6.136;2022-07-06T07:15:01;3.30;;;1.10;;
4885;SDS011;2457;51.788;6.136;2022-07-06T07:17:28;4.93;;;1.20;;
4885;SDS011;2457;51.788;6.136;2022-07-06T07:19:56;2.57;;;0.93;;
4885;SDS011;2457;51.788;6.136;2022-07-06T07:22:23;3.97;;;1.00;;
4885;SDS011;2457;51.788;6.136;2022-07-06T07:24:51;2.60;;;0.90;;
4885;SDS011;2457;51.788;6.136;2022-07-06T07:27:18;3.67;;;1.30;;
4885;SDS011;2457;51.788;6.136;2022-07-06T07:29:45;3.53;;;1.17;;
4885;SDS011;2457;51.788;6.136;2022-07-06T07:32:13;3.17;;;1.10;;
4885;SDS011;2457;51.788;6.136;2022-07-06T07:34:40;3.40;;;1.20;;
4885;SDS011;2457;51.788;6.136;2022-07-06T07:37:07;3.60;;;1.10;;
4885;SDS011;2457;51.788;6.136;2022-07-06T07:39:35;5.57;;;1.40;;
4885;SDS011;2457;51.788;6.136;2022-07-06T07:42:02;3.10;;;1.20;;
4885;SDS011;2457;51.788;6.136;2022-07-06T07:44:29;3.77;;;1.20;;
4885;SDS011;2457;51.788;6.136;2022-07-06T07:46:57;4.30;;;1.17;;
4885;SDS011;2457;51.788;6.136;2022-07-06T07:49:24;3.53;;;1.20;;
4885;SDS011;2457;51.788;6.136;2022-07-06T07:51:51;3.23;;;1.00;;
4885;SDS011;2457;51.788;6.136;2022-07-06T07:54:18;3.30;;;1.20;;
4885;SDS011;2457;51.788;6.136;2022-07-06T07:56:46;4.13;;;1.30;;
4885;SDS011;2457;51.788;6.136;2022-07-06T07:59:13;3.17;;;1.00;;
4885;SDS011;2457;51.788;6.136;2022-07-06T08:01:40;7.70;;;1.00;;
4885;SDS011;2457;51.788;6.136;2022-07-06T08:04:07;3.40;;;1.00;;
4885;SDS011;2457;51.788;6.136;2022-07-06T08:06:35;2.97;;;1.13;;
4885;SDS011;2457;51.788;6.136;2022-07-06T08:09:02;5.50;;;0.90;;
4885;SDS011;2457;51.788;6.136;2022-07-06T08:11:31;7.30;;;1.40;;
4885;SDS011;2457;51.788;6.136;2022-07-06T08:13:58;3.83;;;1.10;;
4885;SDS011;2457;51.788;6.136;2022-07-06T08:16:26;5.07;;;1.00;;
4885;SDS011;2457;51.788;6.136;2022-07-06T08:18:53;5.10;;;1.13;;
4885;SDS011;2457;51.788;6.136;2022-07-06T08:21:21;5.47;;;1.40;;
4885;SDS011;2457;51.788;6.136;2022-07-06T08:23:48;3.90;;;1.10;;
4885;SDS011;2457;51.788;6.136;2022-07-06T08:26:15;4.30;;;1.03;;
4885;SDS011;2457;51.788;6.136;2022-07-06T08:28:43;2.83;;;1.00;;
4885;SDS011;2457;51.788;6.136;2022-07-06T08:31:10;5.10;;;0.90;;
4885;SDS011;2457;51.788;6.136;2022-07-06T08:33:37;2.80;;;0.90;;
4885;SDS011;2457;51.788;6.136;2022-07-06T08:36:05;3.20;;;0.90;;
4885;SDS011;2457;51.788;6.136;2022-07-06T08:38:32;2.70;;;0.90;;
4885;SDS011;2457;51.788;6.136;2022-07-06T08:40:59;3.33;;;1.00;;
4885;SDS011;2457;51.788;6.136;2022-07-06T08:43:26;10.47;;;1.30;;
4885;SDS011;2457;51.788;6.136;2022-07-06T08:45:54;4.93;;;1.33;;
4885;SDS011;2457;51.788;6.136;2022-07-06T08:48:22;4.40;;;1.00;;
4885;SDS011;2457;51.788;6.136;2022-07-06T08:50:50;4.25;;;1.00;;
4885;SDS011;2457;51.788;6.136;2022-07-06T08:53:19;4.70;;;1.40;;
4885;SDS011;2457;51.788;6.136;2022-07-06T08:55:50;4.75;;;1.20;;
4885;SDS011;2457;51.788;6.136;2022-07-06T08:58:17;5.20;;;1.27;;
4885;SDS011;2457;51.788;6.136;2022-07-06T09:00:45;2.80;;;1.00;;
4885;SDS011;2457;51.788;6.136;2022-07-06T09:03:12;5.13;;;0.93;;
4885;SDS011;2457;51.788;6.136;2022-07-06T09:05:40;7.40;;;1.23;;
4885;SDS011;2457;51.788;6.136;2022-07-06T09:08:07;3.40;;;1.10;;
4885;SDS011;2457;51.788;6.136;2022-07-06T09:10:35;4.27;;;1.10;;
4885;SDS011;2457;51.788;6.136;2022-07-06T09:13:06;2.50;;;0.90;;
4885;SDS011;2457;51.788;6.136;2022-07-06T09:15:34;4.30;;;1.30;;
4885;SDS011;2457;51.788;6.136;2022-07-06T09:18:02;4.70;;;0.90;;
4885;SDS011;2457;51.788;6.136;2022-07-06T09:20:30;5.67;;;1.10;;
4885;SDS011;2457;51.788;6.136;2022-07-06T09:22:58;4.00;;;0.80;;
4885;SDS011;2457;51.788;6.136;2022-07-06T09:25:26;3.93;;;0.90;;
4885;SDS011;2457;51.788;6.136;2022-07-06T09:27:54;3.80;;;0.85;;
4885;SDS011;2457;51.788;6.136;2022-07-06T09:30:22;4.63;;;0.80;;
4885;SDS011;2457;51.788;6.136;2022-07-06T09:32:51;8.63;;;0.90;;
4885;SDS011;2457;51.788;6.136;2022-07-06T09:35:25;3.70;;;0.93;;
4885;SDS011;2457;51.788;6.136;2022-07-06T09:40:34;2.70;;;0.87;;
4885;SDS011;2457;51.788;6.136;2022-07-06T09:45:37;3.00;;;0.80;;
4885;SDS011;2457;51.788;6.136;2022-07-06T09:48:18;2.70;;;0.70;;
4885;SDS011;2457;51.788;6.136;2022-07-06T09:50:49;4.20;;;1.13;;
4885;SDS011;2457;51.788;6.136;2022-07-06T09:53:18;2.30;;;0.73;;
4885;SDS011;2457;51.788;6.136;2022-07-06T09:55:46;2.50;;;0.80;;
4885;SDS011;2457;51.788;6.136;2022-07-06T09:58:14;2.50;;;0.77;;
4885;SDS011;2457;51.788;6.136;2022-07-06T10:00:42;3.70;;;0.70;;
4885;SDS011;2457;51.788;6.136;2022-07-06T10:03:09;2.80;;;0.80;;
4885;SDS011;2457;51.788;6.136;2022-07-06T10:05:38;3.50;;;0.70;;
4885;SDS011;2457;51.788;6.136;2022-07-06T10:08:06;3.23;;;0.70;;
4885;SDS011;2457;51.788;6.136;2022-07-06T10:10:40;4.07;;;0.93;;
4885;SDS011;2457;51.788;6.136;2022-07-06T10:13:04;2.40;;;0.70;;
4885;SDS011;2457;51.788;6.136;2022-07-06T10:15:36;2.83;;;0.80;;
4885;SDS011;2457;51.788;6.136;2022-07-06T10:18:05;2.90;;;0.80;;
4885;SDS011;2457;51.788;6.136;2022-07-06T10:20:34;2.93;;;0.90;;
4885;SDS011;2457;51.788;6.136;2022-07-06T10:23:03;3.83;;;1.00;;
4885;SDS011;2457;51.788;6.136;2022-07-06T10:25:30;4.67;;;1.00;;
4885;SDS011;2457;51.788;6.136;2022-07-06T10:27:58;2.90;;;0.80;;
4885;SDS011;2457;51.788;6.136;2022-07-06T10:30:26;3.63;;;0.80;;
4885;SDS011;2457;51.788;6.136;2022-07-06T10:32:54;4.50;;;0.90;;
4885;SDS011;2457;51.788;6.136;2022-07-06T10:35:22;3.20;;;0.90;;
4885;SDS011;2457;51.788;6.136;2022-07-06T10:38:08;2.90;;;0.70;;
4885;SDS011;2457;51.788;6.136;2022-07-06T10:40:37;2.80;;;0.90;;
4885;SDS011;2457;51.788;6.136;2022-07-06T10:43:22;4.63;;;0.83;;
4885;SDS011;2457;51.788;6.136;2022-07-06T10:45:51;8.43;;;1.10;;
4885;SDS011;2457;51.788;6.136;2022-07-06T10:48:19;4.77;;;1.00;;
4885;SDS011;2457;51.788;6.136;2022-07-06T10:50:48;2.70;;;0.97;;
4885;SDS011;2457;51.788;6.136;2022-07-06T10:53:17;3.10;;;0.90;;
4885;SDS011;2457;51.788;6.136;2022-07-06T10:55:45;3.03;;;1.03;;
4885;SDS011;2457;51.788;6.136;2022-07-06T10:58:13;3.17;;;0.80;;
4885;SDS011;2457;51.788;6.136;2022-07-06T11:00:54;2.60;;;0.83;;
4885;SDS011;2457;51.788;6.136;2022-07-06T11:04:05;2.50;;;1.00;;
4885;SDS011;2457;51.788;6.136;2022-07-06T11:05:57;2.30;;;0.70;;
4885;SDS011;2457;51.788;6.136;2022-07-06T11:08:22;2.60;;;0.80;;
4885;SDS011;2457;51.788;6.136;2022-07-06T11:10:49;2.67;;;0.90;;
4885;SDS011;2457;51.788;6.136;2022-07-06T11:13:30;2.60;;;0.80;;
4885;SDS011;2457;51.788;6.136;2022-07-06T11:16:00;3.10;;;1.10;;
4885;SDS011;2457;51.788;6.136;2022-07-06T11:18:38;2.57;;;0.80;;
4885;SDS011;2457;51.788;6.136;2022-07-06T11:23:46;3.27;;;0.80;;
4885;SDS011;2457;51.788;6.136;2022-07-06T11:26:14;3.97;;;0.80;;
4885;SDS011;2457;51.788;6.136;2022-07-06T11:28:42;5.85;;;1.00;;
4885;SDS011;2457;51.788;6.136;2022-07-06T11:31:11;2.50;;;0.80;;
4885;SDS011;2457;51.788;6.136;2022-07-06T11:33:38;3.83;;;1.00;;
4885;SDS011;2457;51.788;6.136;2022-07-06T11:36:19;3.90;;;0.80;;
4885;SDS011;2457;51.788;6.136;2022-07-06T11:38:47;3.93;;;0.80;;
4885;SDS011;2457;51.788;6.136;2022-07-06T11:41:15;5.57;;;1.10;;
4885;SDS011;2457;51.788;6.136;2022-07-06T11:43:43;3.23;;;0.83;;
4885;SDS011;2457;51.788;6.136;2022-07-06T11:46:24;4.20;;;0.80;;
4885;SDS011;2457;51.788;6.136;2022-07-06T11:48:55;3.13;;;0.80;;
4885;SDS011;2457;51.788;6.136;2022-07-06T11:51:24;3.07;;;1.10;;
4885;SDS011;2457;51.788;6.136;2022-07-06T11:53:52;3.77;;;0.90;;
4885;SDS011;2457;51.788;6.136;2022-07-06T11:56:20;2.50;;;0.80;;
4885;SDS011;2457;51.788;6.136;2022-07-06T11:58:54;2.77;;;1.00;;
4885;SDS011;2457;51.788;6.136;2022-07-06T12:01:22;2.60;;;0.80;;
4885;SDS011;2457;51.788;6.136;2022-07-06T12:03:50;3.33;;;0.73;;
4885;SDS011;2457;51.788;6.136;2022-07-06T12:06:19;4.40;;;0.90;;
4885;SDS011;2457;51.788;6.136;2022-07-06T12:08:50;3.17;;;0.80;;
4885;SDS011;2457;51.788;6.136;2022-07-06T12:11:28;3.63;;;1.00;;
4885;SDS011;2457;51.788;6.136;2022-07-06T12:14:01;5.00;;;1.00;;
4885;SDS011;2457;51.788;6.136;2022-07-06T12:16:31;3.50;;;0.90;;
4885;SDS011;2457;51.788;6.136;2022-07-06T12:19:01;3.00;;;0.83;;
4885;SDS011;2457;51.788;6.136;2022-07-06T12:21:29;2.50;;;0.80;;
4885;SDS011;2457;51.788;6.136;2022-07-06T12:23:56;2.70;;;1.00;;
4885;SDS011;2457;51.788;6.136;2022-07-06T12:26:25;3.10;;;0.93;;
4885;SDS011;2457;51.788;6.136;2022-07-06T12:29:04;3.33;;;1.10;;
4885;SDS011;2457;51.788;6.136;2022-07-06T12:31:37;3.00;;;1.00;;
4885;SDS011;2457;51.788;6.136;2022-07-06T12:34:05;2.40;;;0.80;;
4885;SDS011;2457;51.788;6.136;2022-07-06T12:36:41;2.90;;;1.03;;
4885;SDS011;2457;51.788;6.136;2022-07-06T12:39:09;3.00;;;0.97;;
4885;SDS011;2457;51.788;6.136;2022-07-06T12:41:32;5.27;;;1.10;;
4885;SDS011;2457;51.788;6.136;2022-07-06T12:46:34;5.40;;;1.20;;
4885;SDS011;2457;51.788;6.136;2022-07-06T12:49:03;5.27;;;0.90;;
4885;SDS011;2457;51.788;6.136;2022-07-06T12:51:47;3.73;;;1.20;;
4885;SDS011;2457;51.788;6.136;2022-07-06T12:54:13;3.43;;;0.90;;
4885;SDS011;2457;51.788;6.136;2022-07-06T12:56:59;3.03;;;0.90;;
4885;SDS011;2457;51.788;6.136;2022-07-06T12:59:24;3.90;;;1.00;;
4885;SDS011;2457;51.788;6.136;2022-07-06T13:01:53;4.30;;;1.00;;
4885;SDS011;2457;51.788;6.136;2022-07-06T13:04:24;3.77;;;1.20;;
4885;SDS011;2457;51.788;6.136;2022-07-06T13:06:51;2.50;;;0.80;;
4885;SDS011;2457;51.788;6.136;2022-07-06T13:09:19;3.57;;;1.00;;
4885;SDS011;2457;51.788;6.136;2022-07-06T13:11:47;2.80;;;0.87;;
4885;SDS011;2457;51.788;6.136;2022-07-06T13:14:15;4.93;;;1.10;;
4885;SDS011;2457;51.788;6.136;2022-07-06T13:16:43;3.93;;;1.30;;
4885;SDS011;2457;51.788;6.136;2022-07-06T13:19:11;6.00;;;1.00;;
4885;SDS011;2457;51.788;6.136;2022-07-06T13:21:38;2.50;;;0.80;;
4885;SDS011;2457;51.788;6.136;2022-07-06T13:24:06;3.37;;;1.00;;
4885;SDS011;2457;51.788;6.136;2022-07-06T13:26:33;3.40;;;1.17;;
4885;SDS011;2457;51.788;6.136;2022-07-06T13:29:01;2.70;;;0.80;;
4885;SDS011;2457;51.788;6.136;2022-07-06T13:31:29;4.03;;;1.00;;
4885;SDS011;2457;51.788;6.136;2022-07-06T13:33:57;3.40;;;0.97;;
4885;SDS011;2457;51.788;6.136;2022-07-06T13:36:25;2.80;;;0.87;;
4885;SDS011;2457;51.788;6.136;2022-07-06T13:38:52;2.70;;;0.90;;
4885;SDS011;2457;51.788;6.136;2022-07-06T13:41:19;6.60;;;1.20;;
4885;SDS011;2457;51.788;6.136;2022-07-06T13:43:46;3.93;;;1.00;;
4885;SDS011;2457;51.788;6.136;2022-07-06T13:46:14;3.17;;;0.90;;
4885;SDS011;2457;51.788;6.136;2022-07-06T13:48:43;2.70;;;0.80;;
4885;SDS011;2457;51.788;6.136;2022-07-06T13:51:10;4.83;;;0.90;;
4885;SDS011;2457;51.788;6.136;2022-07-06T13:53:37;2.97;;;0.90;;
4885;SDS011;2457;51.788;6.136;2022-07-06T13:56:05;6.70;;;1.00;;
4885;SDS011;2457;51.788;6.136;2022-07-06T13:58:34;2.70;;;0.90;;
4885;SDS011;2457;51.788;6.136;2022-07-06T14:01:01;7.50;;;1.17;;
4885;SDS011;2457;51.788;6.136;2022-07-06T14:03:29;3.53;;;1.00;;
4885;SDS011;2457;51.788;6.136;2022-07-06T14:06:01;4.13;;;1.30;;
4885;SDS011;2457;51.788;6.136;2022-07-06T14:08:25;6.27;;;1.20;;
4885;SDS011;2457;51.788;6.136;2022-07-06T14:10:53;3.10;;;1.00;;
4885;SDS011;2457;51.788;6.136;2022-07-06T14:13:21;4.10;;;1.20;;
4885;SDS011;2457;51.788;6.136;2022-07-06T14:15:48;2.40;;;0.80;;
4885;SDS011;2457;51.788;6.136;2022-07-06T14:18:16;3.40;;;1.00;;
4885;SDS011;2457;51.788;6.136;2022-07-06T14:20:50;2.70;;;0.90;;
4885;SDS011;2457;51.788;6.136;2022-07-06T14:23:15;2.70;;;0.90;;
4885;SDS011;2457;51.788;6.136;2022-07-06T14:25:43;3.13;;;1.10;;
4885;SDS011;2457;51.788;6.136;2022-07-06T14:28:10;3.17;;;1.03;;
4885;SDS011;2457;51.788;6.136;2022-07-06T14:30:40;3.00;;;0.90;;
4885;SDS011;2457;51.788;6.136;2022-07-06T14:33:08;2.90;;;0.87;;
4885;SDS011;2457;51.788;6.136;2022-07-06T14:35:37;4.10;;;1.13;;
4885;SDS011;2457;51.788;6.136;2022-07-06T14:38:05;5.27;;;1.00;;
4885;SDS011;2457;51.788;6.136;2022-07-06T14:40:34;2.93;;;0.80;;
4885;SDS011;2457;51.788;6.136;2022-07-06T14:43:01;3.00;;;0.90;;
4885;SDS011;2457;51.788;6.136;2022-07-06T14:45:29;2.90;;;0.80;;
4885;SDS011;2457;51.788;6.136;2022-07-06T14:47:57;3.40;;;0.90;;
4885;SDS011;2457;51.788;6.136;2022-07-06T14:50:24;2.83;;;0.90;;
4885;SDS011;2457;51.788;6.136;2022-07-06T14:52:52;3.73;;;0.93;;
4885;SDS011;2457;51.788;6.136;2022-07-06T14:55:20;4.27;;;1.17;;
4885;SDS011;2457;51.788;6.136;2022-07-06T14:57:47;3.90;;;1.20;;
4885;SDS011;2457;51.788;6.136;2022-07-06T15:00:15;2.70;;;0.90;;
4885;SDS011;2457;51.788;6.136;2022-07-06T15:02:43;3.37;;;1.07;;
4885;SDS011;2457;51.788;6.136;2022-07-06T15:05:10;4.67;;;1.00;;
4885;SDS011;2457;51.788;6.136;2022-07-06T15:07:38;2.80;;;0.80;;
4885;SDS011;2457;51.788;6.136;2022-07-06T15:10:05;3.30;;;1.13;;
4885;SDS011;2457;51.788;6.136;2022-07-06T15:12:33;3.73;;;1.17;;
4885;SDS011;2457;51.788;6.136;2022-07-06T15:15:00;3.97;;;0.90;;
4885;SDS011;2457;51.788;6.136;2022-07-06T15:17:28;3.93;;;1.00;;
4885;SDS011;2457;51.788;6.136;2022-07-06T15:19:55;2.70;;;0.93;;
4885;SDS011;2457;51.788;6.136;2022-07-06T15:22:22;3.77;;;1.30;;
4885;SDS011;2457;51.788;6.136;2022-07-06T15:24:50;4.87;;;1.40;;
4885;SDS011;2457;51.788;6.136;2022-07-06T15:27:17;2.97;;;1.10;;
4885;SDS011;2457;51.788;6.136;2022-07-06T15:29:44;3.80;;;1.20;;
4885;SDS011;2457;51.788;6.136;2022-07-06T15:32:12;3.90;;;1.20;;